Time;durP1;ratioP1;P1;durP2;ratioP2;P2;SDS_P1;SDS_P2;PMS_P1;PMS_P2;Temp;Humidity;BMP_temperature;BMP_pressure;BME280_temperature;BME280_humidity;BME280_pressure;Samples;Min_cycle;Max_cycle;Signal;HPM_P1;HPM_P2
2022/07/10 00:00:26;;;;;;;4.87;1.67;;;15.00;99.90;;;;;;5081809;28;20865;-78
2022/07/10 00:02:54;;;;;;;4.50;2.10;;;14.90;99.90;;;;;;5082237;28;20440;-78
2022/07/10 00:05:22;;;;;;;6.57;1.60;;;14.90;99.90;;;;;;5083128;28;20475;-78
2022/07/10 00:07:50;;;;;;;4.93;1.90;;;14.90;99.90;;;;;;5081204;28;20448;-77
2022/07/10 00:10:17;;;;;;;5.27;2.50;;;14.90;99.90;;;;;;5080695;28;20448;-78
2022/07/10 00:12:45;;;;;;;5.30;2.33;;;14.90;99.90;;;;;;5081942;28;20471;-78
2022/07/10 00:15:13;;;;;;;4.50;2.10;;;14.90;99.90;;;;;;5077280;28;20842;-78
2022/07/10 00:17:40;;;;;;;8.40;2.80;;;15.00;99.90;;;;;;5076448;28;20824;-78
2022/07/10 00:20:08;;;;;;;5.13;2.70;;;14.90;99.90;;;;;;5076584;28;20449;-78
2022/07/10 00:22:38;;;;;;;3.30;1.87;;;15.00;99.90;;;;;;5082887;28;20448;-77
2022/07/10 00:25:06;;;;;;;4.50;2.10;;;15.00;99.90;;;;;;5082727;28;20474;-78
2022/07/10 00:27:33;;;;;;;5.70;3.20;;;15.00;99.90;;;;;;5076387;28;20479;-78
2022/07/10 00:30:01;;;;;;;3.67;2.13;;;15.00;99.90;;;;;;5076938;28;20449;-78
2022/07/10 00:32:28;;;;;;;4.77;1.50;;;15.10;99.90;;;;;;5075790;28;20452;-78
2022/07/10 00:34:54;;;;;;;4.33;1.70;;;15.00;99.90;;;;;;5075771;28;20556;-78
2022/07/10 00:37:22;;;;;;;3.63;2.10;;;15.00;99.90;;;;;;5077076;28;20516;-77
2022/07/10 00:39:51;;;;;;;3.87;2.00;;;15.00;99.90;;;;;;5077292;28;20449;-78
2022/07/10 00:42:18;;;;;;;8.00;2.33;;;15.00;99.90;;;;;;5076404;28;20448;-78
2022/07/10 00:44:44;;;;;;;2.30;1.43;;;15.00;99.90;;;;;;5079855;28;20457;-77
2022/07/10 00:47:13;;;;;;;2.80;1.60;;;15.10;99.90;;;;;;5084602;28;20537;-78
2022/07/10 00:49:40;;;;;;;4.53;1.70;;;15.10;99.90;;;;;;5084215;28;20451;-77
2022/07/10 00:52:09;;;;;;;8.70;2.00;;;15.10;99.90;;;;;;5078267;28;20464;-77
2022/07/10 00:54:37;;;;;;;7.00;1.63;;;15.30;99.90;;;;;;5075085;28;20441;-77
2022/07/10 00:57:07;;;;;;;4.60;1.63;;;15.00;99.90;;;;;;5074312;28;20445;-77
2022/07/10 00:59:35;;;;;;;4.40;2.27;;;14.90;99.90;;;;;;5074911;28;20425;-78
2022/07/10 01:02:02;;;;;;;3.63;1.73;;;15.00;99.90;;;;;;5075090;28;20447;-78
2022/07/10 01:04:30;;;;;;;7.23;2.40;;;15.00;99.90;;;;;;5074776;28;20440;-77
2022/07/10 01:06:56;;;;;;;3.80;2.10;;;15.00;99.90;;;;;;5074223;28;20541;-77
2022/07/10 01:09:23;;;;;;;5.20;2.07;;;15.00;99.90;;;;;;5075692;28;20445;-78
2022/07/10 01:11:51;;;;;;;1.30;1.20;;;14.90;99.90;;;;;;5075706;28;20444;-78
2022/07/10 01:14:20;;;;;;;2.07;1.60;;;14.90;99.90;;;;;;5074277;28;20943;-77
2022/07/10 01:16:46;;;;;;;5.93;1.67;;;14.90;99.90;;;;;;5075506;28;20448;-78
2022/07/10 01:19:13;;;;;;;1.93;1.70;;;14.90;99.90;;;;;;5075225;28;20453;-78
2022/07/10 01:21:41;;;;;;;5.03;1.33;;;14.90;99.90;;;;;;5075207;28;20793;-78
2022/07/10 01:24:09;;;;;;;5.30;1.30;;;14.80;99.90;;;;;;5074999;28;20455;-78
2022/07/10 01:26:36;;;;;;;4.07;1.83;;;14.80;99.90;;;;;;5079486;28;20495;-77
2022/07/10 01:29:07;;;;;;;4.90;1.50;;;14.80;99.90;;;;;;5086167;28;20483;-77
2022/07/10 01:31:34;;;;;;;4.20;1.47;;;14.80;99.90;;;;;;5085349;28;20486;-78
2022/07/10 01:34:02;;;;;;;5.00;1.50;;;14.90;99.90;;;;;;5084187;28;20451;-77
2022/07/10 01:36:30;;;;;;;3.50;1.67;;;14.80;99.90;;;;;;5085039;28;20465;-78
2022/07/10 01:38:59;;;;;;;4.30;1.83;;;14.80;99.90;;;;;;5079744;28;20449;-79
2022/07/10 01:41:27;;;;;;;4.20;1.50;;;14.80;99.90;;;;;;5076496;28;20952;-78
2022/07/10 01:43:54;;;;;;;5.27;1.37;;;14.80;99.90;;;;;;5080343;28;20939;-78
2022/07/10 01:46:21;;;;;;;5.13;2.00;;;14.80;99.90;;;;;;5078577;28;20484;-78
2022/07/10 01:48:48;;;;;;;4.27;1.70;;;14.80;99.90;;;;;;5077717;28;20456;-78
2022/07/10 01:51:14;;;;;;;1.83;1.37;;;14.80;99.90;;;;;;5075782;28;20468;-78
2022/07/10 01:53:41;;;;;;;2.00;1.43;;;14.80;99.90;;;;;;5076064;28;20495;-78
2022/07/10 01:56:11;;;;;;;5.40;2.03;;;14.70;99.90;;;;;;5079724;28;20467;-78
2022/07/10 01:58:38;;;;;;;5.20;2.60;;;14.70;99.90;;;;;;5078755;28;20444;-78
2022/07/10 02:01:06;;;;;;;1.77;1.43;;;14.70;99.90;;;;;;5077565;28;20931;-78
2022/07/10 02:06:18;;;;;;;4.60;1.67;;;14.50;99.90;;;;;;5075355;28;20476;-78
2022/07/10 02:08:44;;;;;;;4.33;1.63;;;14.60;99.90;;;;;;5075115;28;20792;-78
2022/07/10 02:11:13;;;;;;;5.83;1.27;;;14.70;99.90;;;;;;5075102;28;20544;-78
2022/07/10 02:13:39;;;;;;;1.97;1.20;;;14.70;99.90;;;;;;5077139;28;20471;-78
2022/07/10 02:16:07;;;;;;;3.00;1.37;;;14.60;99.90;;;;;;5074824;28;20476;-78
2022/07/10 02:18:33;;;;;;;5.87;1.50;;;14.70;99.90;;;;;;5073832;28;21012;-77
2022/07/10 02:21:00;;;;;;;3.90;1.83;;;14.70;99.90;;;;;;5082748;28;20449;-77
2022/07/10 02:23:28;;;;;;;2.63;2.10;;;14.70;99.90;;;;;;5090260;28;20488;-77
2022/07/10 02:25:54;;;;;;;4.50;1.60;;;14.70;99.90;;;;;;5081566;28;20514;-78
2022/07/10 02:28:22;;;;;;;4.47;2.07;;;14.70;99.90;;;;;;5075376;28;20458;-78
2022/07/10 02:30:49;;;;;;;4.80;1.50;;;14.70;99.90;;;;;;5075215;28;20444;-78
2022/07/10 02:33:16;;;;;;;1.87;1.30;;;14.70;99.90;;;;;;5074182;28;20819;-78
2022/07/10 02:35:42;;;;;;;3.03;1.20;;;14.70;99.90;;;;;;5074085;28;20473;-78
2022/07/10 02:38:10;;;;;;;4.53;1.60;;;14.60;99.90;;;;;;5074231;28;20444;-78
2022/07/10 02:40:36;;;;;;;3.33;1.30;;;14.60;99.90;;;;;;5073913;28;20502;-77
2022/07/10 02:43:03;;;;;;;5.33;1.30;;;14.60;99.90;;;;;;5073245;28;20812;-80
2022/07/10 02:45:31;;;;;;;2.60;1.53;;;14.60;99.90;;;;;;5073030;28;20465;-77
2022/07/10 02:47:58;;;;;;;4.83;1.40;;;14.50;99.90;;;;;;5074296;28;20491;-78
2022/07/10 02:50:25;;;;;;;5.20;1.73;;;14.50;99.90;;;;;;5075265;28;20816;-79
2022/07/10 02:52:51;;;;;;;0.90;0.90;;;14.40;99.90;;;;;;5075013;28;20853;-78
2022/07/10 02:55:18;;;;;;;8.40;2.67;;;14.40;99.90;;;;;;5075618;28;20472;-78
2022/07/10 02:57:45;;;;;;;4.03;1.60;;;14.40;99.90;;;;;;5074322;28;20460;-79
2022/07/10 03:00:13;;;;;;;2.87;1.60;;;14.40;99.90;;;;;;5074582;28;20813;-78
2022/07/10 03:02:41;;;;;;;6.13;1.60;;;14.40;99.90;;;;;;5074678;28;20445;-78
2022/07/10 03:05:08;;;;;;;3.90;1.57;;;14.30;99.90;;;;;;5074334;28;21005;-78
2022/07/10 03:07:35;;;;;;;2.57;1.50;;;14.30;99.90;;;;;;5074258;28;20487;-78
2022/07/10 03:10:02;;;;;;;3.43;1.90;;;14.30;99.90;;;;;;5077579;28;20456;-78
2022/07/10 03:12:28;;;;;;;4.60;1.50;;;14.30;99.90;;;;;;5078273;28;20454;-78
2022/07/10 03:14:55;;;;;;;5.50;1.63;;;14.30;99.90;;;;;;5079008;28;20468;-78
2022/07/10 03:17:22;;;;;;;3.23;1.33;;;14.30;99.90;;;;;;5083265;28;20451;-80
2022/07/10 03:19:50;;;;;;;3.10;1.23;;;14.30;99.90;;;;;;5087468;28;20448;-78
2022/07/10 03:22:17;;;;;;;2.83;1.30;;;14.10;99.90;;;;;;5082408;28;20973;-77
2022/07/10 03:24:46;;;;;;;1.37;1.20;;;14.20;99.90;;;;;;5078716;28;20488;-77
2022/07/10 03:27:13;;;;;;;2.37;1.53;;;14.20;99.90;;;;;;5077065;28;20468;-78
2022/07/10 03:29:40;;;;;;;4.37;1.87;;;14.20;99.90;;;;;;5084246;28;20447;-77
2022/07/10 03:32:08;;;;;;;2.03;1.13;;;14.20;99.90;;;;;;5088420;28;20912;-77
2022/07/10 03:34:34;;;;;;;2.03;1.70;;;14.00;99.90;;;;;;5088148;28;20448;-77
2022/07/10 03:37:03;;;;;;;3.80;1.30;;;14.20;99.90;;;;;;5080719;28;20815;-78
2022/07/10 03:39:29;;;;;;;3.37;1.73;;;14.10;99.90;;;;;;5079319;28;20458;-79
2022/07/10 03:41:56;;;;;;;4.00;1.67;;;14.10;99.90;;;;;;5082065;28;20448;-77
2022/07/10 03:44:23;;;;;;;4.53;1.53;;;14.10;99.90;;;;;;5085207;28;20456;-77
2022/07/10 03:46:49;;;;;;;3.10;1.20;;;14.20;99.90;;;;;;5080256;28;20825;-79
2022/07/10 03:49:16;;;;;;;3.83;1.57;;;14.10;99.90;;;;;;5077862;28;20453;-78
2022/07/10 03:51:43;;;;;;;3.17;1.17;;;14.10;99.90;;;;;;5077490;28;20451;-78
2022/07/10 03:54:11;;;;;;;2.90;1.20;;;14.20;99.90;;;;;;5076643;28;20791;-78
2022/07/10 03:59:22;;;;;;;4.80;1.60;;;14.10;99.90;;;;;;5076722;28;20978;-78
2022/07/10 04:01:49;;;;;;;3.60;1.37;;;14.20;99.90;;;;;;5076937;28;20453;-78
2022/07/10 04:04:16;;;;;;;3.53;1.30;;;14.20;99.90;;;;;;5077697;28;20471;-78
2022/07/10 04:06:43;;;;;;;3.37;1.40;;;14.20;99.90;;;;;;5077656;28;20947;-78
2022/07/10 04:09:11;;;;;;;4.30;2.00;;;14.10;99.90;;;;;;5077844;28;20452;-78
2022/07/10 04:11:37;;;;;;;10.23;4.80;;;14.10;99.90;;;;;;5077726;28;20440;-78
2022/07/10 04:14:04;;;;;;;4.30;2.20;;;14.10;99.90;;;;;;5077693;28;20434;-79
2022/07/10 04:16:31;;;;;;;3.97;2.10;;;14.10;99.90;;;;;;5084820;28;20223;-78
2022/07/10 04:18:58;;;;;;;2.47;1.70;;;14.10;99.90;;;;;;5086138;28;20456;-78
2022/07/10 04:21:24;;;;;;;3.70;1.90;;;14.20;99.90;;;;;;5076423;28;20444;-78
2022/07/10 04:23:51;;;;;;;8.33;2.27;;;14.10;99.90;;;;;;5078765;28;20448;-79
2022/07/10 04:26:19;;;;;;;3.90;2.60;;;14.10;99.90;;;;;;5076732;28;20476;-78
2022/07/10 04:28:46;;;;;;;2.07;1.50;;;14.10;99.90;;;;;;5076858;28;20480;-78
2022/07/10 04:31:12;;;;;;;4.10;2.13;;;14.10;99.90;;;;;;5076772;28;20445;-78
2022/07/10 04:33:39;;;;;;;4.00;1.77;;;14.10;99.90;;;;;;5077132;28;20448;-78
2022/07/10 04:36:07;;;;;;;5.77;3.20;;;14.10;99.90;;;;;;5077137;28;20465;-79
2022/07/10 04:38:34;;;;;;;4.97;3.60;;;14.10;99.90;;;;;;5078099;28;20501;-78
2022/07/10 04:41:00;;;;;;;3.77;2.80;;;14.20;99.90;;;;;;5077294;28;20468;-79
2022/07/10 04:43:30;;;;;;;5.30;1.80;;;14.20;99.90;;;;;;5076737;28;20519;-79
2022/07/10 04:45:57;;;;;;;4.90;1.67;;;14.30;99.90;;;;;;5081586;28;20518;-79
2022/07/10 04:48:24;;;;;;;5.80;3.10;;;14.10;99.90;;;;;;5082054;28;20473;-78
2022/07/10 04:50:50;;;;;;;3.07;1.50;;;14.20;99.90;;;;;;5077553;28;20445;-78
2022/07/10 04:53:17;;;;;;;2.40;1.93;;;14.30;99.90;;;;;;5077393;28;20826;-78
2022/07/10 04:55:44;;;;;;;6.50;3.33;;;14.30;99.90;;;;;;5076570;28;20471;-78
2022/07/10 04:58:10;;;;;;;13.03;6.37;;;14.20;99.90;;;;;;5076834;28;20449;-78
2022/07/10 05:00:38;;;;;;;4.37;3.03;;;14.30;99.90;;;;;;5075948;28;20452;-77
2022/07/10 05:03:05;;;;;;;10.10;3.67;;;14.30;99.90;;;;;;5074940;28;20452;-77
2022/07/10 05:05:32;;;;;;;5.43;1.77;;;14.30;99.90;;;;;;5074546;28;20487;-77
2022/07/10 05:07:59;;;;;;;5.63;3.60;;;14.20;99.90;;;;;;5075034;28;20484;-77
2022/07/10 05:10:27;;;;;;;5.33;2.53;;;14.30;99.90;;;;;;5074468;28;20999;-77
2022/07/10 05:12:53;;;;;;;7.53;2.00;;;14.40;99.90;;;;;;5075313;28;20799;-77
2022/07/10 05:15:20;;;;;;;4.53;1.90;;;14.40;99.90;;;;;;5074769;28;21050;-77
2022/07/10 05:17:48;;;;;;;4.20;3.17;;;14.50;99.90;;;;;;5075810;28;20440;-78
2022/07/10 05:20:15;;;;;;;3.30;1.80;;;14.50;99.90;;;;;;5075134;28;20518;-78
2022/07/10 05:22:41;;;;;;;8.40;3.07;;;14.50;99.90;;;;;;5075200;28;20445;-78
2022/07/10 05:25:08;;;;;;;7.27;2.37;;;14.50;99.90;;;;;;5099225;22;20510;-82
2022/07/10 05:27:35;;;;;;;5.17;1.70;;;14.50;99.90;;;;;;5077233;28;20484;-81
2022/07/10 05:30:02;;;;;;;32.27;20.13;;;14.40;99.90;;;;;;5077568;28;20448;-80
2022/07/10 05:32:29;;;;;;;10.70;5.57;;;14.50;99.90;;;;;;5080049;28;20441;-79
2022/07/10 05:34:58;;;;;;;5.03;2.20;;;14.50;99.90;;;;;;5082125;28;20449;-79
2022/07/10 05:37:25;;;;;;;9.77;2.70;;;14.60;99.90;;;;;;5081972;28;20441;-78
2022/07/10 05:39:51;;;;;;;2.53;1.53;;;14.50;99.90;;;;;;5078642;28;20463;-79
2022/07/10 05:42:18;;;;;;;4.70;2.40;;;14.40;99.90;;;;;;5076745;28;20428;-80
2022/07/10 05:44:45;;;;;;;10.60;2.40;;;14.70;99.90;;;;;;5075816;28;20453;-79
2022/07/10 05:47:12;;;;;;;6.87;3.10;;;14.60;99.90;;;;;;5076927;28;20445;-81
2022/07/10 05:49:39;;;;;;;14.27;3.20;;;14.60;99.90;;;;;;5078691;28;20524;-79
2022/07/10 05:52:08;;;;;;;11.47;4.60;;;14.50;99.90;;;;;;5083557;28;20508;-79
2022/07/10 05:54:34;;;;;;;9.27;2.27;;;14.50;99.90;;;;;;5080525;28;20505;-80
2022/07/10 05:57:01;;;;;;;4.43;2.10;;;14.60;99.90;;;;;;5077794;28;20469;-81
2022/07/10 05:59:28;;;;;;;6.30;2.10;;;14.60;99.90;;;;;;5081060;28;20498;-79
2022/07/10 06:01:54;;;;;;;4.77;2.20;;;14.60;99.90;;;;;;5082230;28;20516;-80
2022/07/10 06:04:21;;;;;;;5.47;3.20;;;14.70;99.90;;;;;;5077086;28;20528;-81
2022/07/10 06:06:48;;;;;;;4.60;2.47;;;14.70;99.90;;;;;;5076101;28;20473;-80
2022/07/10 06:09:16;;;;;;;5.00;2.97;;;14.60;99.90;;;;;;5076136;28;20485;-81
2022/07/10 06:11:44;;;;;;;6.97;3.63;;;14.70;99.90;;;;;;5076414;28;20453;-80
2022/07/10 06:14:10;;;;;;;4.53;2.17;;;14.70;99.90;;;;;;5080465;28;20492;-82
2022/07/10 06:16:37;;;;;;;5.10;3.40;;;14.70;99.90;;;;;;5082147;28;20461;-81
2022/07/10 06:19:04;;;;;;;7.33;3.00;;;14.80;99.90;;;;;;5082307;28;20548;-80
2022/07/10 06:21:32;;;;;;;3.00;1.63;;;14.80;99.90;;;;;;5083596;28;20494;-82
2022/07/10 06:23:59;;;;;;;6.87;2.53;;;14.80;99.90;;;;;;5084176;28;20850;-81
2022/07/10 06:26:27;;;;;;;4.20;1.77;;;14.70;99.90;;;;;;5084207;28;20485;-82
2022/07/10 06:28:54;;;;;;;4.80;1.70;;;14.70;99.90;;;;;;5085710;28;21017;-82
2022/07/10 06:31:21;;;;;;;6.13;2.33;;;14.70;99.90;;;;;;5083995;28;20463;-81
2022/07/10 06:33:48;;;;;;;1.87;1.57;;;14.80;99.90;;;;;;5083055;28;20445;-81
2022/07/10 06:36:15;;;;;;;3.63;2.07;;;14.70;99.90;;;;;;5083389;28;20468;-81
2022/07/10 06:38:42;;;;;;;4.70;2.17;;;14.80;99.90;;;;;;5082526;28;20440;-81
2022/07/10 06:41:09;;;;;;;2.53;2.33;;;14.80;99.90;;;;;;5083354;28;20539;-81
2022/07/10 06:43:37;;;;;;;4.83;2.17;;;14.90;99.90;;;;;;5083842;28;20455;-79
2022/07/10 06:46:04;;;;;;;5.63;2.13;;;14.90;99.90;;;;;;5086682;28;20469;-80
2022/07/10 06:48:30;;;;;;;3.20;1.80;;;14.90;99.90;;;;;;5083402;28;20472;-78
2022/07/10 06:50:57;;;;;;;6.97;2.23;;;14.90;99.90;;;;;;5082235;28;20892;-80
2022/07/10 06:53:26;;;;;;;5.43;2.93;;;14.90;99.90;;;;;;5081420;28;20448;-81
2022/07/10 06:55:57;;;;;;;6.77;2.60;;;15.00;99.90;;;;;;5082116;28;20464;-81
2022/07/10 06:58:23;;;;;;;11.00;3.40;;;15.10;99.90;;;;;;5082206;28;20433;-81
2022/07/10 07:00:52;;;;;;;3.50;1.90;;;15.10;99.90;;;;;;5081606;28;20448;-80
2022/07/10 07:03:18;;;;;;;4.50;2.40;;;15.20;99.90;;;;;;5080758;28;20437;-81
2022/07/10 07:05:48;;;;;;;3.53;2.03;;;15.10;99.90;;;;;;5080672;28;20472;-80
2022/07/10 07:08:16;;;;;;;3.63;1.97;;;15.10;99.90;;;;;;5079954;28;20483;-80
2022/07/10 07:10:42;;;;;;;4.77;1.70;;;15.10;99.90;;;;;;5080936;28;20433;-79
2022/07/10 07:13:10;;;;;;;6.73;2.03;;;15.10;99.90;;;;;;5079842;28;20792;-80
2022/07/10 07:15:41;;;;;;;6.27;2.07;;;15.20;99.90;;;;;;5079553;28;20464;-81
2022/07/10 07:18:16;;;;;;;3.17;2.10;;;15.20;99.90;;;;;;5080374;28;20517;-81
2022/07/10 07:23:27;;;;;;;4.33;1.80;;;15.40;99.90;;;;;;5079276;28;20439;-80
2022/07/10 07:25:55;;;;;;;2.53;1.70;;;15.40;99.90;;;;;;5079254;28;20476;-81
2022/07/10 07:28:22;;;;;;;3.97;1.93;;;15.50;99.90;;;;;;5082724;28;20623;-81
2022/07/10 07:30:49;;;;;;;5.40;2.13;;;15.40;99.90;;;;;;5081693;28;20436;-79
2022/07/10 07:33:18;;;;;;;5.70;1.97;;;15.50;99.90;;;;;;5082672;28;20445;-81
2022/07/10 07:35:45;;;;;;;8.00;2.07;;;15.60;99.90;;;;;;5079099;28;20482;-80
2022/07/10 07:38:12;;;;;;;5.63;2.50;;;15.70;99.90;;;;;;5078558;28;20448;-80
2022/07/10 07:40:38;;;;;;;2.90;1.60;;;15.70;99.90;;;;;;5078992;28;20455;-81
2022/07/10 07:43:07;;;;;;;5.77;1.70;;;15.80;99.90;;;;;;5079033;28;20472;-79
2022/07/10 07:45:34;;;;;;;4.43;1.60;;;16.00;99.90;;;;;;5078950;28;20465;-80
2022/07/10 07:48:01;;;;;;;6.53;1.93;;;16.10;99.90;;;;;;5079219;28;20477;-79
2022/07/10 07:50:32;;;;;;;6.80;1.77;;;15.90;99.90;;;;;;5080783;28;20539;-80
2022/07/10 07:53:00;;;;;;;3.47;1.80;;;15.90;99.90;;;;;;5080453;28;20429;-80
2022/07/10 07:55:28;;;;;;;7.90;2.10;;;15.80;99.90;;;;;;5086683;28;20472;-77
2022/07/10 07:57:56;;;;;;;7.80;1.80;;;15.80;99.90;;;;;;5083622;28;20468;-81
2022/07/10 08:00:26;;;;;;;5.97;1.53;;;15.80;99.90;;;;;;5081377;28;20795;-80
2022/07/10 08:02:54;;;;;;;6.03;2.00;;;15.60;99.90;;;;;;5081925;28;20499;-79
2022/07/10 08:05:24;;;;;;;6.03;2.00;;;15.80;99.90;;;;;;5080064;28;20465;-80
2022/07/10 08:07:54;;;;;;;3.60;2.20;;;15.80;99.90;;;;;;5080847;28;20449;-80
2022/07/10 08:10:24;;;;;;;2.33;1.50;;;15.90;99.90;;;;;;5079875;28;20959;-81
2022/07/10 08:12:51;;;;;;;4.33;1.77;;;15.90;99.90;;;;;;5078881;28;20575;-80
2022/07/10 08:15:21;;;;;;;3.77;1.20;;;16.00;99.90;;;;;;5080407;28;20555;-79
2022/07/10 08:17:49;;;;;;;7.30;1.57;;;16.20;99.90;;;;;;5080119;28;20437;-80
2022/07/10 08:20:16;;;;;;;6.10;1.80;;;16.40;99.90;;;;;;5079846;28;20880;-80
2022/07/10 08:22:43;;;;;;;8.87;1.77;;;;;;;;;;5079789;28;20479;-79
2022/07/10 08:25:12;;;;;;;5.53;2.10;;;16.40;99.90;;;;;;5079702;28;20983;-77
2022/07/10 08:27:39;;;;;;;3.97;2.17;;;16.40;99.90;;;;;;5079095;28;20441;-81
2022/07/10 08:30:08;;;;;;;4.00;1.43;;;16.20;99.90;;;;;;5079615;28;20472;-79
2022/07/10 08:32:35;;;;;;;4.60;1.70;;;16.30;99.90;;;;;;5079731;28;20460;-79
2022/07/10 08:35:02;;;;;;;5.97;2.30;;;16.20;99.90;;;;;;5081559;28;20544;-79
2022/07/10 08:37:29;;;;;;;7.73;1.80;;;16.20;99.90;;;;;;5080866;28;20429;-80
2022/07/10 08:39:56;;;;;;;4.10;1.90;;;16.20;99.90;;;;;;5080697;28;20445;-80
2022/07/10 08:42:26;;;;;;;8.93;1.93;;;16.20;99.90;;;;;;5080411;28;20527;-81
2022/07/10 08:44:55;;;;;;;4.77;2.10;;;16.10;99.90;;;;;;5080573;28;20441;-79
2022/07/10 08:47:25;;;;;;;1.50;1.40;;;16.30;99.90;;;;;;5080044;28;20434;-80
2022/07/10 08:49:52;;;;;;;5.10;2.00;;;16.30;99.90;;;;;;5079678;28;20575;-82
2022/07/10 08:52:27;;;;;;;8.07;2.03;;;16.30;99.90;;;;;;5079992;28;20437;-83
2022/07/10 08:54:55;;;;;;;7.10;2.13;;;16.10;99.90;;;;;;5078909;28;20440;-82
2022/07/10 08:57:26;;;;;;;6.60;1.97;;;16.30;99.90;;;;;;5078294;28;20453;-81
2022/07/10 08:59:53;;;;;;;3.00;1.73;;;16.30;99.90;;;;;;5080360;28;20425;-81
2022/07/10 09:02:20;;;;;;;5.67;1.67;;;16.40;99.90;;;;;;5082018;28;20540;-82
2022/07/10 09:04:47;;;;;;;8.17;2.67;;;16.70;99.90;;;;;;5083307;28;20449;-79
2022/07/10 09:07:14;;;;;;;3.73;2.67;;;16.40;99.90;;;;;;5079424;28;20449;-79
2022/07/10 09:09:53;;;;;;;4.67;2.70;;;16.50;99.90;;;;;;5079647;28;20520;-79
2022/07/10 09:12:21;;;;;;;4.53;3.10;;;16.60;99.90;;;;;;5079106;28;20440;-80
2022/07/10 09:14:49;;;;;;;4.30;1.87;;;16.50;99.90;;;;;;5077926;28;20944;-79
2022/07/10 09:17:15;;;;;;;3.27;1.53;;;16.50;99.90;;;;;;5077590;28;20543;-80
2022/07/10 09:19:43;;;;;;;9.00;1.90;;;16.30;99.90;;;;;;5079140;28;20524;-83
2022/07/10 09:22:12;;;;;;;4.53;2.03;;;16.20;99.90;;;;;;5078346;28;20536;-80
2022/07/10 09:24:40;;;;;;;5.03;2.33;;;16.30;99.90;;;;;;5078013;28;20449;-80
2022/07/10 09:27:07;;;;;;;5.10;1.73;;;16.40;99.90;;;;;;5076827;28;20841;-81
2022/07/10 09:29:47;;;;;;;8.90;2.17;;;16.40;99.90;;;;;;5078429;28;20533;-82
2022/07/10 09:32:16;;;;;;;6.73;1.93;;;16.50;99.90;;;;;;5078151;28;20456;-81
2022/07/10 09:34:45;;;;;;;4.07;1.60;;;16.60;99.90;;;;;;5077171;28;20798;-81
2022/07/10 09:37:22;;;;;;;6.20;2.13;;;16.60;99.90;;;;;;5077321;28;20445;-81
2022/07/10 09:39:56;;;;;;;3.20;2.03;;;16.80;99.90;;;;;;5076720;28;20498;-81
2022/07/10 09:42:28;;;;;;;5.77;2.70;;;16.90;99.90;;;;;;5076990;28;20808;-82
2022/07/10 09:45:17;;;;;;;8.70;2.43;;;16.90;99.90;;;;;;5079023;28;20447;-81
2022/07/10 09:47:54;;;;;;;6.80;2.20;;;16.90;99.90;;;;;;5081647;28;20421;-81
2022/07/10 09:50:24;;;;;;;7.37;3.60;;;16.70;99.90;;;;;;5087910;28;20472;-82
2022/07/10 09:52:52;;;;;;;4.40;1.80;;;16.90;99.90;;;;;;5088296;28;20471;-81
2022/07/10 09:55:21;;;;;;;5.33;2.43;;;17.10;99.90;;;;;;5088087;28;20461;-81
2022/07/10 09:57:57;;;;;;;6.30;2.73;;;17.10;99.90;;;;;;5087779;28;20445;-81
2022/07/10 10:00:26;;;;;;;4.60;2.27;;;17.00;99.90;;;;;;5085724;28;20482;-81
2022/07/10 10:02:59;;;;;;;6.50;2.40;;;17.00;99.90;;;;;;5088873;28;20527;-83
2022/07/10 10:05:35;;;;;;;9.40;2.23;;;16.90;99.90;;;;;;5086752;28;20503;-81
2022/07/10 10:08:07;;;;;;;6.70;2.80;;;16.90;99.90;;;;;;5087421;28;20428;-83
2022/07/10 10:10:38;;;;;;;4.93;2.03;;;16.90;99.90;;;;;;5089190;28;20978;-82
2022/07/10 10:13:10;;;;;;;3.93;2.30;;;16.90;99.90;;;;;;5089306;28;20813;-81
2022/07/10 10:15:37;;;;;;;8.00;2.20;;;17.00;99.90;;;;;;5088281;28;20507;-81
2022/07/10 10:18:06;;;;;;;9.57;3.50;;;16.90;99.90;;;;;;5090739;28;20452;-81
2022/07/10 10:20:37;;;;;;;11.17;3.07;;;17.00;99.90;;;;;;5091614;28;20437;-81
2022/07/10 10:23:05;;;;;;;3.70;1.70;;;16.90;99.90;;;;;;5084916;28;20449;-81
2022/07/10 10:25:34;;;;;;;8.77;2.40;;;17.00;99.90;;;;;;5077798;28;20477;-81
2022/07/10 10:28:02;;;;;;;13.23;2.10;;;17.00;99.90;;;;;;5076257;28;20449;-81
2022/07/10 10:30:30;;;;;;;3.83;1.80;;;17.10;99.90;;;;;;5076137;28;20484;-80
2022/07/10 10:32:57;;;;;;;10.10;1.80;;;17.10;99.90;;;;;;5077385;28;20814;-81
2022/07/10 10:35:47;;;;;;;3.70;2.27;;;17.00;99.90;;;;;;5081776;28;20987;-80
2022/07/10 10:38:15;;;;;;;4.97;2.30;;;17.00;99.90;;;;;;5083825;28;20448;-80
2022/07/10 10:40:42;;;;;;;3.70;1.53;;;17.20;99.90;;;;;;5081331;28;20420;-81
2022/07/10 10:43:19;;;;;;;5.53;2.03;;;17.30;99.90;;;;;;5081577;28;20422;-81
2022/07/10 10:45:47;;;;;;;4.53;2.27;;;17.20;99.90;;;;;;5082054;28;20464;-81
2022/07/10 10:48:15;;;;;;;5.80;1.80;;;17.30;99.90;;;;;;5082086;28;20425;-81
2022/07/10 10:50:43;;;;;;;4.37;1.30;;;17.30;99.90;;;;;;5082730;28;20480;-82
2022/07/10 10:53:15;;;;;;;4.20;1.70;;;17.30;99.90;;;;;;5092560;28;20437;-82
2022/07/10 10:56:00;;;;;;;6.50;1.80;;;17.40;99.90;;;;;;5092966;28;20461;-83
2022/07/10 10:58:28;;;;;;;2.83;1.87;;;17.60;99.90;;;;;;5084759;28;20429;-82
2022/07/10 11:01:04;;;;;;;2.00;1.40;;;17.70;99.90;;;;;;5082148;28;20938;-81
2022/07/10 11:03:30;;;;;;;6.90;1.70;;;17.70;99.90;;;;;;5080723;28;20420;-82
2022/07/10 11:05:57;;;;;;;2.93;1.53;;;17.40;99.90;;;;;;5080231;28;20476;-82
2022/07/10 11:08:43;;;;;;;4.87;1.40;;;17.50;99.90;;;;;;5083216;28;20459;-82
2022/07/10 11:11:42;;;;;;;5.83;2.07;;;17.60;99.90;;;;;;5079117;28;20449;-82
2022/07/10 11:14:11;;;;;;;3.35;1.40;;;17.70;99.90;;;;;;5079519;28;20466;-82
2022/07/10 11:16:48;;;;;;;5.63;1.83;;;17.70;99.90;;;;;;5081149;28;20230;-84
2022/07/10 11:19:24;;;;;;;6.23;2.23;;;17.70;99.90;;;;;;5078604;28;20429;-81
2022/07/10 11:21:59;;;;;;;6.87;2.07;;;17.50;99.90;;;;;;5076659;28;20494;-81
2022/07/10 11:24:41;;;;;;;3.60;1.97;;;17.50;99.90;;;;;;5081636;28;20428;-83
2022/07/10 11:27:30;;;;;;;3.77;1.73;;;17.50;99.90;;;;;;5119946;22;20554;-80
2022/07/10 11:30:00;;;;;;;10.23;8.50;;;17.40;99.90;;;;;;5108323;28;20494;-80
2022/07/10 11:32:28;;;;;;;9.47;6.00;;;17.60;99.90;;;;;;5112513;28;20454;-81
2022/07/10 11:34:55;;;;;;;7.30;3.77;;;17.60;99.90;;;;;;5104004;28;20456;-80
2022/07/10 11:37:25;;;;;;;14.10;7.10;;;17.60;99.90;;;;;;5102740;28;20468;-80
2022/07/10 11:40:08;;;;;;;5.23;2.03;;;17.80;99.90;;;;;;5102497;28;20454;-80
2022/07/10 11:42:50;;;;;;;6.37;2.07;;;17.90;99.90;;;;;;5101182;28;20432;-80
2022/07/10 11:45:31;;;;;;;18.00;11.53;;;17.80;99.90;;;;;;5101876;28;20431;-80
2022/07/10 11:47:58;;;;;;;13.20;4.93;;;17.70;99.90;;;;;;5100981;28;21011;-80
2022/07/10 11:50:26;;;;;;;19.50;11.80;;;17.80;99.90;;;;;;5107197;28;20479;-79
2022/07/10 11:52:54;;;;;;;15.93;7.70;;;17.80;99.90;;;;;;5112170;28;20520;-78
2022/07/10 11:55:24;;;;;;;10.73;2.20;;;17.90;99.90;;;;;;5117951;28;20459;-79
2022/07/10 11:57:52;;;;;;;7.50;1.90;;;17.70;99.90;;;;;;5112945;28;20514;-80
2022/07/10 12:00:24;;;;;;;10.17;6.63;;;17.80;99.90;;;;;;5101577;28;20479;-81
2022/07/10 12:02:51;;;;;;;6.20;3.07;;;17.80;99.90;;;;;;5104321;28;20817;-80
2022/07/10 12:05:31;;;;;;;18.80;12.13;;;18.00;99.90;;;;;;5102998;28;20448;-80
2022/07/10 12:07:58;;;;;;;10.30;6.23;;;18.10;99.90;;;;;;5103462;28;20436;-81
2022/07/10 12:10:28;;;;;;;32.17;23.00;;;18.20;99.90;;;;;;5103352;28;20482;-81
2022/07/10 12:13:04;;;;;;;4.57;2.30;;;18.20;99.90;;;;;;5103364;28;20455;-80
2022/07/10 12:15:32;;;;;;;7.90;3.80;;;18.00;99.90;;;;;;5104048;28;20539;-80
2022/07/10 12:17:59;;;;;;;13.67;6.10;;;18.00;99.90;;;;;;5103736;28;20432;-80
2022/07/10 12:20:26;;;;;;;4.40;2.50;;;18.00;99.90;;;;;;5105127;28;20443;-81
2022/07/10 12:22:54;;;;;;;6.83;2.80;;;17.90;99.90;;;;;;5108027;28;20801;-81
2022/07/10 12:25:21;;;;;;;3.60;1.50;;;17.80;99.90;;;;;;5103094;28;20539;-82
2022/07/10 12:27:49;;;;;;;4.47;1.23;;;17.90;99.90;;;;;;5102709;28;20464;-80
2022/07/10 12:31:00;;;;;;;;;;;;;;;;;;;;;
2022/07/10 12:37:09;;;;;;;4.50;2.20;;;18.50;99.90;;;;;;4957075;28;20561;-80
2022/07/10 12:39:38;;;;;;;4.87;2.90;;;18.60;99.90;;;;;;5004399;28;20425;-81
2022/07/10 12:42:07;;;;;;;2.80;1.90;;;18.50;99.90;;;;;;5098272;28;20436;-80
2022/07/10 12:44:38;;;;;;;4.60;2.17;;;18.50;99.90;;;;;;5107329;28;20570;-80
2022/07/10 12:47:08;;;;;;;4.27;1.80;;;18.40;99.90;;;;;;5111509;28;20466;-79
2022/07/10 12:49:53;;;;;;;9.73;4.10;;;18.30;99.90;;;;;;5116439;28;20460;-79
2022/07/10 12:52:24;;;;;;;6.20;1.73;;;18.20;99.90;;;;;;5118586;28;20436;-79
2022/07/10 12:55:07;;;;;;;2.23;2.03;;;18.20;99.90;;;;;;5113460;28;20451;-79
2022/07/10 12:57:34;;;;;;;10.80;3.30;;;18.30;99.90;;;;;;5099370;28;20489;-79
2022/07/10 13:00:07;;;;;;;8.27;2.87;;;18.50;99.90;;;;;;5098075;28;20440;-79
2022/07/10 13:02:33;;;;;;;10.60;2.00;;;18.70;99.90;;;;;;5105253;28;20440;-81
2022/07/10 13:05:01;;;;;;;3.90;1.90;;;18.60;99.90;;;;;;5108865;28;20428;-82
2022/07/10 13:07:31;;;;;;;3.30;1.57;;;18.80;99.90;;;;;;5109454;28;20480;-82